createdAt,value
2023-04-16T00:00:11.711Z,1009.69
2023-04-16T00:01:11.696Z,1009.68
2023-04-16T00:02:11.722Z,1009.70
2023-04-16T00:03:11.864Z,1009.72
2023-04-16T00:04:11.739Z,1009.72
2023-04-16T00:05:11.651Z,1009.68
2023-04-16T00:06:11.625Z,1009.66
2023-04-16T00:07:11.628Z,1009.68
2023-04-16T00:08:11.637Z,1009.65
2023-04-16T00:09:11.706Z,1009.73
2023-04-16T00:10:11.616Z,1009.73
2023-04-16T00:11:11.637Z,1009.67
2023-04-16T00:12:11.543Z,1009.75
2023-04-16T00:13:11.560Z,1009.67
2023-04-16T00:14:11.556Z,1009.67
2023-04-16T00:15:11.519Z,1009.70
2023-04-16T00:16:11.512Z,1009.71
2023-04-16T00:17:11.492Z,1009.69
2023-04-16T00:18:11.538Z,1009.72
2023-04-16T00:19:11.625Z,1009.74
2023-04-16T00:20:11.534Z,1009.74
2023-04-16T00:21:11.473Z,1009.76
2023-04-16T00:22:11.470Z,1009.76
2023-04-16T00:23:11.430Z,1009.76
2023-04-16T00:24:11.446Z,1009.78
2023-04-16T00:25:11.446Z,1009.79
2023-04-16T00:26:11.399Z,1009.80
2023-04-16T00:27:11.380Z,1009.82
2023-04-16T00:28:11.382Z,1009.80
2023-04-16T00:29:11.572Z,1009.81
2023-04-16T00:30:11.358Z,1009.88
2023-04-16T00:31:11.351Z,1009.79
2023-04-16T00:32:21.422Z,1009.82
2023-04-16T00:33:13.138Z,1009.84
2023-04-16T00:34:11.322Z,1009.88
2023-04-16T00:35:11.334Z,1009.86
2023-04-16T00:36:11.313Z,1009.83
2023-04-16T00:37:11.249Z,1009.87
2023-04-16T00:38:11.262Z,1009.84
2023-04-16T00:39:11.401Z,1009.89
2023-04-16T00:40:11.262Z,1009.86
2023-04-16T00:41:11.244Z,1009.89
2023-04-16T00:42:11.224Z,1009.89
2023-04-16T00:43:11.212Z,1009.90
2023-04-16T00:44:11.191Z,1009.92
2023-04-16T00:45:11.200Z,1009.92
2023-04-16T00:46:11.255Z,1009.90
2023-04-16T00:47:11.161Z,1009.91
2023-04-16T00:48:11.222Z,1009.91
2023-04-16T00:49:11.392Z,1009.90
2023-04-16T00:50:11.161Z,1009.93
2023-04-16T00:51:11.142Z,1009.92
2023-04-16T00:52:11.166Z,1009.92
2023-04-16T00:53:11.157Z,1009.93
2023-04-16T00:54:11.111Z,1009.93
2023-04-16T00:55:11.148Z,1009.91
2023-04-16T00:56:11.116Z,1009.92
2023-04-16T00:57:11.070Z,1009.94
2023-04-16T00:58:11.068Z,1009.91
2023-04-16T00:59:11.253Z,1009.91
2023-04-16T01:00:11.263Z,1009.95
2023-04-16T01:01:11.062Z,1009.93
2023-04-16T01:02:11.080Z,1009.94
2023-04-16T01:03:11.151Z,1009.93
2023-04-16T01:04:11.109Z,1009.93
2023-04-16T01:05:11.046Z,1009.93
2023-04-16T01:06:10.951Z,1009.91
2023-04-16T01:07:10.985Z,1009.89
2023-04-16T01:08:10.976Z,1009.92
2023-04-16T01:09:11.158Z,1009.92
2023-04-16T01:10:10.928Z,1009.92
2023-04-16T01:11:10.956Z,1009.90
2023-04-16T01:12:10.897Z,1009.86
2023-04-16T01:13:10.918Z,1009.90
2023-04-16T01:14:10.883Z,1009.89
2023-04-16T01:15:10.884Z,1009.92
2023-04-16T01:16:10.895Z,1009.92
2023-04-16T01:17:10.876Z,1009.94
2023-04-16T01:18:10.838Z,1009.97
2023-04-16T01:19:11.056Z,1009.93
2023-04-16T01:20:10.822Z,1009.99
2023-04-16T01:21:10.869Z,1010.00
2023-04-16T01:22:10.814Z,1010.00
2023-04-16T01:23:10.800Z,1010.07
2023-04-16T01:24:10.765Z,1010.09
2023-04-16T01:25:10.773Z,1010.08
2023-04-16T01:26:10.755Z,1010.10
2023-04-16T01:27:10.822Z,1010.13
2023-04-16T01:28:10.738Z,1010.11
2023-04-16T01:29:11.013Z,1010.10
2023-04-16T01:30:10.759Z,1010.11
2023-04-16T01:31:10.805Z,1010.12
2023-04-16T01:32:10.693Z,1010.14
2023-04-16T01:33:10.695Z,1010.11
2023-04-16T01:34:10.682Z,1010.09
2023-04-16T01:35:10.674Z,1010.14
2023-04-16T01:36:10.682Z,1010.16
2023-04-16T01:37:10.625Z,1010.18
2023-04-16T01:38:10.610Z,1010.18
2023-04-16T01:39:10.891Z,1010.24
2023-04-16T01:40:10.607Z,1010.22
2023-04-16T01:41:10.639Z,1010.25
2023-04-16T01:42:10.580Z,1010.28
2023-04-16T01:43:10.600Z,1010.22
2023-04-16T01:44:10.610Z,1010.24
2023-04-16T01:45:10.588Z,1010.23
2023-04-16T01:46:10.543Z,1010.31
2023-04-16T01:47:10.555Z,1010.32
2023-04-16T01:48:10.533Z,1010.32
2023-04-16T01:49:10.773Z,1010.31
2023-04-16T01:50:10.543Z,1010.29
2023-04-16T01:51:10.535Z,1010.28
2023-04-16T01:52:10.487Z,1010.26
2023-04-16T01:53:10.492Z,1010.29
2023-04-16T01:54:10.495Z,1010.28
2023-04-16T01:55:10.460Z,1010.23
2023-04-16T01:56:10.482Z,1010.27
2023-04-16T01:57:10.428Z,1010.27
2023-04-16T01:58:10.418Z,1010.28
2023-04-16T01:59:10.835Z,1010.24
2023-04-16T02:00:10.364Z,1010.24
2023-04-16T02:01:10.429Z,1010.24
2023-04-16T02:02:10.538Z,1010.22
2023-04-16T02:03:10.537Z,1010.32
2023-04-16T02:04:10.472Z,1010.30
2023-04-16T02:05:10.362Z,1010.29
2023-04-16T02:06:10.328Z,1010.37
2023-04-16T02:07:20.432Z,1010.32
2023-04-16T02:08:20.428Z,1010.34
2023-04-16T02:09:10.522Z,1010.38
2023-04-16T02:10:10.301Z,1010.36
2023-04-16T02:11:10.276Z,1010.34
2023-04-16T02:12:10.276Z,1010.34
2023-04-16T02:13:10.248Z,1010.31
2023-04-16T02:14:10.270Z,1010.33
2023-04-16T02:15:10.239Z,1010.29
2023-04-16T02:16:10.278Z,1010.28
2023-04-16T02:17:10.222Z,1010.32
2023-04-16T02:18:10.210Z,1010.30
2023-04-16T02:19:10.420Z,1010.32
2023-04-16T02:20:10.203Z,1010.30
2023-04-16T02:21:10.190Z,1010.34
2023-04-16T02:22:10.168Z,1010.35
2023-04-16T02:23:10.172Z,1010.38
2023-04-16T02:24:10.154Z,1010.42
2023-04-16T02:25:10.133Z,1010.39
2023-04-16T02:26:10.132Z,1010.40
2023-04-16T02:27:10.084Z,1010.40
2023-04-16T02:28:10.078Z,1010.40
2023-04-16T02:29:10.249Z,1010.44
2023-04-16T02:30:10.063Z,1010.47
2023-04-16T02:31:10.134Z,1010.47
2023-04-16T02:32:10.068Z,1010.47
2023-04-16T02:33:10.126Z,1010.48
2023-04-16T02:34:10.017Z,1010.51
2023-04-16T02:35:10.028Z,1010.51
2023-04-16T02:36:10.009Z,1010.50
2023-04-16T02:37:09.990Z,1010.48
2023-04-16T02:38:09.990Z,1010.50
2023-04-16T02:39:10.116Z,1010.45
2023-04-16T02:40:10.007Z,1010.48
2023-04-16T02:41:09.973Z,1010.53
2023-04-16T02:42:09.920Z,1010.48
2023-04-16T02:43:09.937Z,1010.49
2023-04-16T02:44:09.938Z,1010.41
2023-04-16T02:45:09.935Z,1010.44
2023-04-16T02:46:09.987Z,1010.44
2023-04-16T02:47:09.898Z,1010.38
2023-04-16T02:48:09.878Z,1010.37
2023-04-16T02:49:10.155Z,1010.41
2023-04-16T02:50:09.870Z,1010.46
2023-04-16T02:51:09.838Z,1010.45
2023-04-16T02:52:09.845Z,1010.51
2023-04-16T02:53:09.849Z,1010.52
2023-04-16T02:54:09.859Z,1010.55
2023-04-16T02:55:09.812Z,1010.53
2023-04-16T02:56:09.817Z,1010.53
2023-04-16T02:57:09.787Z,1010.54
2023-04-16T02:58:09.800Z,1010.54
2023-04-16T02:59:10.012Z,1010.59
2023-04-16T03:00:09.742Z,1010.62
2023-04-16T03:01:09.750Z,1010.56
2023-04-16T03:02:09.776Z,1010.59
2023-04-16T03:03:09.750Z,1010.56
2023-04-16T03:04:10.106Z,1010.57
2023-04-16T03:05:09.720Z,1010.55
2023-04-16T03:06:09.683Z,1010.53
2023-04-16T03:07:09.673Z,1010.51
2023-04-16T03:08:09.649Z,1010.55
2023-04-16T03:09:09.792Z,1010.53
2023-04-16T03:10:09.642Z,1010.54
2023-04-16T03:11:09.670Z,1010.52
2023-04-16T03:12:09.592Z,1010.52
2023-04-16T03:13:09.858Z,1010.52
2023-04-16T03:14:09.624Z,1010.50
2023-04-16T03:15:09.593Z,1010.47
2023-04-16T03:16:09.642Z,1010.45
2023-04-16T03:17:09.554Z,1010.54
2023-04-16T03:18:09.572Z,1010.51
2023-04-16T03:19:09.799Z,1010.50
2023-04-16T03:20:09.535Z,1010.45
2023-04-16T03:21:09.544Z,1010.50
2023-04-16T03:22:09.516Z,1010.50
2023-04-16T03:23:09.501Z,1010.51
2023-04-16T03:24:09.496Z,1010.51
2023-04-16T03:25:09.524Z,1010.50
2023-04-16T03:26:09.449Z,1010.52
2023-04-16T03:27:09.477Z,1010.55
2023-04-16T03:28:09.498Z,1010.54
2023-04-16T03:29:09.596Z,1010.55
2023-04-16T03:30:09.453Z,1010.58
2023-04-16T03:31:09.455Z,1010.62
2023-04-16T03:32:09.412Z,1010.60
2023-04-16T03:33:09.391Z,1010.60
2023-04-16T03:34:09.400Z,1010.63
2023-04-16T03:35:09.495Z,1010.60
2023-04-16T03:36:09.402Z,1010.59
2023-04-16T03:37:09.379Z,1010.63
2023-04-16T03:38:09.339Z,1010.65
2023-04-16T03:39:09.480Z,1010.64
2023-04-16T03:40:09.322Z,1010.66
2023-04-16T03:41:09.309Z,1010.62
2023-04-16T03:42:09.315Z,1010.66
2023-04-16T03:43:09.280Z,1010.66
2023-04-16T03:44:09.293Z,1010.73
2023-04-16T03:45:09.272Z,1010.75
2023-04-16T03:46:09.309Z,1010.70
2023-04-16T03:47:09.263Z,1010.73
2023-04-16T03:48:09.283Z,1010.74
2023-04-16T03:49:09.646Z,1010.77
2023-04-16T03:50:09.218Z,1010.77
2023-04-16T03:51:09.210Z,1010.75
2023-04-16T03:52:09.200Z,1010.72
2023-04-16T03:53:09.191Z,1010.74
2023-04-16T03:54:09.183Z,1010.85
2023-04-16T03:55:09.174Z,1010.86
2023-04-16T03:56:09.150Z,1010.84
2023-04-16T03:57:09.181Z,1010.83
2023-04-16T03:58:09.107Z,1010.81
2023-04-16T03:59:09.391Z,1010.83
2023-04-16T04:00:09.115Z,1010.84
2023-04-16T04:01:09.082Z,1010.81
2023-04-16T04:02:09.236Z,1010.79
2023-04-16T04:03:09.296Z,1010.77
2023-04-16T04:04:09.165Z,1010.83
2023-04-16T04:05:09.118Z,1010.83
2023-04-16T04:06:09.075Z,1010.82
2023-04-16T04:07:09.086Z,1010.84
2023-04-16T04:08:09.062Z,1010.86
2023-04-16T04:09:09.283Z,1010.85
2023-04-16T04:10:08.998Z,1010.88
2023-04-16T04:11:08.994Z,1010.89
2023-04-16T04:12:08.971Z,1010.89
2023-04-16T04:13:08.971Z,1010.88
2023-04-16T04:14:08.972Z,1010.94
2023-04-16T04:15:08.949Z,1010.92
2023-04-16T04:16:08.987Z,1010.95
2023-04-16T04:17:08.944Z,1010.96
2023-04-16T04:18:08.921Z,1010.99
2023-04-16T04:19:09.192Z,1011.00
2023-04-16T04:20:08.904Z,1011.02
2023-04-16T04:21:08.897Z,1011.02
2023-04-16T04:22:08.865Z,1011.03
2023-04-16T04:23:08.877Z,1011.01
2023-04-16T04:24:08.858Z,1011.03
2023-04-16T04:25:08.842Z,1011.07
2023-04-16T04:26:08.907Z,1011.05
2023-04-16T04:27:08.833Z,1011.06
2023-04-16T04:28:08.810Z,1011.07
2023-04-16T04:29:09.138Z,1011.13
2023-04-16T04:30:08.818Z,1011.11
2023-04-16T04:31:08.774Z,1011.17
2023-04-16T04:32:08.821Z,1011.11
2023-04-16T04:33:08.780Z,1011.14
2023-04-16T04:34:08.746Z,1011.16
2023-04-16T04:35:08.782Z,1011.18
2023-04-16T04:36:08.724Z,1011.21
2023-04-16T04:37:13.645Z,1011.18
2023-04-16T04:38:08.734Z,1011.17
2023-04-16T04:39:08.947Z,1011.18
2023-04-16T04:40:08.673Z,1011.16
2023-04-16T04:41:08.697Z,1011.20
2023-04-16T04:42:08.656Z,1011.18
2023-04-16T04:43:09.629Z,1011.18
2023-04-16T04:44:08.623Z,1011.17
2023-04-16T04:45:08.627Z,1011.19
2023-04-16T04:46:08.669Z,1011.21
2023-04-16T04:47:08.651Z,1011.23
2023-04-16T04:48:08.648Z,1011.20
2023-04-16T04:49:08.861Z,1011.15
2023-04-16T04:50:08.556Z,1011.23
2023-04-16T04:51:08.566Z,1011.29
2023-04-16T04:52:08.562Z,1011.29
2023-04-16T04:53:08.568Z,1011.28
2023-04-16T04:54:08.523Z,1011.28
2023-04-16T04:55:08.541Z,1011.35
2023-04-16T04:56:12.085Z,1011.41
2023-04-16T04:57:08.503Z,1011.36
2023-04-16T04:58:08.483Z,1011.35
2023-04-16T04:59:08.538Z,1011.39
2023-04-16T05:00:08.463Z,1011.30
2023-04-16T05:01:08.587Z,1011.42
2023-04-16T05:02:08.492Z,1011.40
2023-04-16T05:03:08.511Z,1011.45
2023-04-16T05:04:08.482Z,1011.46
2023-04-16T05:05:08.552Z,1011.47
2023-04-16T05:06:08.401Z,1011.52
2023-04-16T05:07:08.405Z,1011.55
2023-04-16T05:08:08.610Z,1011.52
2023-04-16T05:09:08.595Z,1011.55
2023-04-16T05:10:08.386Z,1011.55
2023-04-16T05:11:08.408Z,1011.60
2023-04-16T05:12:08.370Z,1011.57
2023-04-16T05:13:08.397Z,1011.56
2023-04-16T05:14:08.308Z,1011.59
2023-04-16T05:15:08.353Z,1011.57
2023-04-16T05:16:08.322Z,1011.60
2023-04-16T05:17:08.353Z,1011.60
2023-04-16T05:18:08.276Z,1011.64
2023-04-16T05:19:08.774Z,1011.61
2023-04-16T05:20:08.259Z,1011.57
2023-04-16T05:21:08.243Z,1011.63
2023-04-16T05:22:08.232Z,1011.62
2023-04-16T05:23:08.218Z,1011.61
2023-04-16T05:24:08.217Z,1011.65
2023-04-16T05:25:08.198Z,1011.67
2023-04-16T05:26:08.171Z,1011.69
2023-04-16T05:27:08.183Z,1011.77
2023-04-16T05:28:08.170Z,1011.74
2023-04-16T05:29:08.387Z,1011.79
2023-04-16T05:30:08.145Z,1011.81
2023-04-16T05:31:08.185Z,1011.85
2023-04-16T05:32:08.158Z,1011.83
2023-04-16T05:33:08.095Z,1011.89
2023-04-16T05:34:08.094Z,1011.89
2023-04-16T05:35:17.954Z,1011.93
2023-04-16T05:36:08.083Z,1011.94
2023-04-16T05:37:08.048Z,1011.93
2023-04-16T05:38:08.056Z,1011.90
2023-04-16T05:39:08.351Z,1011.83
2023-04-16T05:40:08.039Z,1011.86
2023-04-16T05:41:08.008Z,1011.89
2023-04-16T05:42:08.016Z,1011.94
2023-04-16T05:43:07.989Z,1011.92
2023-04-16T05:44:07.993Z,1011.95
2023-04-16T05:45:07.967Z,1011.97
2023-04-16T05:46:07.985Z,1012.09
2023-04-16T05:47:07.949Z,1012.07
2023-04-16T05:48:07.934Z,1012.09
2023-04-16T05:49:08.368Z,1012.04
2023-04-16T05:50:07.920Z,1012.05
2023-04-16T05:51:07.909Z,1012.03
2023-04-16T05:52:07.907Z,1012.07
2023-04-16T05:53:07.884Z,1012.06
2023-04-16T05:54:07.872Z,1012.03
2023-04-16T05:55:07.856Z,1012.01
2023-04-16T05:56:07.871Z,1012.01
2023-04-16T05:57:07.839Z,1012.03
2023-04-16T05:58:07.849Z,1012.07
2023-04-16T05:59:08.129Z,1012.03
2023-04-16T06:00:07.805Z,1012.05
2023-04-16T06:01:07.795Z,1012.07
2023-04-16T06:02:07.843Z,1012.11
2023-04-16T06:03:07.947Z,1012.10
2023-04-16T06:04:07.796Z,1012.11
2023-04-16T06:05:07.779Z,1012.12
2023-04-16T06:06:07.761Z,1012.15
2023-04-16T06:07:07.736Z,1012.18
2023-04-16T06:08:07.729Z,1012.18
2023-04-16T06:09:07.973Z,1012.17
2023-04-16T06:10:08.037Z,1012.20
2023-04-16T06:11:07.688Z,1012.20
2023-04-16T06:12:07.681Z,1012.18
2023-04-16T06:13:07.657Z,1012.20
2023-04-16T06:14:07.667Z,1012.23
2023-04-16T06:15:07.655Z,1012.21
2023-04-16T06:16:07.744Z,1012.26
2023-04-16T06:17:07.616Z,1012.23
2023-04-16T06:18:07.698Z,1012.22
2023-04-16T06:19:07.793Z,1012.19
2023-04-16T06:20:07.599Z,1012.19
2023-04-16T06:21:07.601Z,1012.22
2023-04-16T06:22:07.580Z,1012.22
2023-04-16T06:23:07.564Z,1012.22
2023-04-16T06:24:07.564Z,1012.24
2023-04-16T06:25:07.538Z,1012.22
2023-04-16T06:26:07.527Z,1012.24
2023-04-16T06:27:07.518Z,1012.27
2023-04-16T06:28:07.504Z,1012.28
2023-04-16T06:29:07.768Z,1012.29
2023-04-16T06:30:07.494Z,1012.28
2023-04-16T06:31:07.504Z,1012.29
2023-04-16T06:32:07.476Z,1012.36
2023-04-16T06:33:07.447Z,1012.41
2023-04-16T06:34:07.462Z,1012.38
2023-04-16T06:35:07.405Z,1012.32
2023-04-16T06:36:08.389Z,1012.32
2023-04-16T06:37:10.399Z,1012.35
2023-04-16T06:38:07.413Z,1012.35
2023-04-16T06:39:07.522Z,1012.32
2023-04-16T06:40:07.402Z,1012.28
2023-04-16T06:41:07.410Z,1012.29
2023-04-16T06:42:07.369Z,1012.32
2023-04-16T06:43:08.310Z,1012.34
2023-04-16T06:44:07.359Z,1012.36
2023-04-16T06:45:07.345Z,1012.43
2023-04-16T06:46:07.309Z,1012.38
2023-04-16T06:47:07.367Z,1012.37
2023-04-16T06:48:07.368Z,1012.40
2023-04-16T06:49:08.492Z,1012.38
2023-04-16T06:50:07.287Z,1012.41
2023-04-16T06:51:07.244Z,1012.37
2023-04-16T06:52:07.257Z,1012.36
2023-04-16T06:53:07.216Z,1012.40
2023-04-16T06:54:07.238Z,1012.40
2023-04-16T06:55:07.207Z,1012.41
2023-04-16T06:56:07.217Z,1012.40
2023-04-16T06:57:07.188Z,1012.43
2023-04-16T06:58:07.193Z,1012.48
2023-04-16T06:59:07.263Z,1012.42
2023-04-16T07:00:07.167Z,1012.43
2023-04-16T07:01:07.191Z,1012.39
2023-04-16T07:02:07.185Z,1012.40
2023-04-16T07:03:07.417Z,1012.41
2023-04-16T07:04:07.153Z,1012.45
2023-04-16T07:05:07.122Z,1012.46
2023-04-16T07:06:07.093Z,1012.47
2023-04-16T07:07:07.065Z,1012.51
2023-04-16T07:08:07.091Z,1012.53
2023-04-16T07:09:07.154Z,1012.45
2023-04-16T07:10:07.066Z,1012.45
2023-04-16T07:11:07.034Z,1012.49
2023-04-16T07:12:07.225Z,1012.49
2023-04-16T07:13:07.023Z,1012.57
2023-04-16T07:14:07.039Z,1012.52
2023-04-16T07:15:07.001Z,1012.52
2023-04-16T07:16:07.027Z,1012.51
2023-04-16T07:17:06.957Z,1012.54
2023-04-16T07:18:07.031Z,1012.49
2023-04-16T07:19:08.153Z,1012.56
2023-04-16T07:20:06.949Z,1012.58
2023-04-16T07:21:06.973Z,1012.59
2023-04-16T07:22:06.936Z,1012.59
2023-04-16T07:23:06.919Z,1012.58
2023-04-16T07:24:06.917Z,1012.64
2023-04-16T07:25:06.891Z,1012.53
2023-04-16T07:26:06.891Z,1012.58
2023-04-16T07:27:06.862Z,1012.55
2023-04-16T07:28:06.878Z,1012.58
2023-04-16T07:29:06.978Z,1012.62
2023-04-16T07:30:06.847Z,1012.62
2023-04-16T07:31:06.827Z,1012.63
2023-04-16T07:32:06.883Z,1012.66
2023-04-16T07:33:06.860Z,1012.68
2023-04-16T07:34:06.795Z,1012.63
2023-04-16T07:35:06.789Z,1012.62
2023-04-16T07:36:06.790Z,1012.67
2023-04-16T07:37:06.773Z,1012.65
2023-04-16T07:38:06.783Z,1012.65
2023-04-16T07:39:06.760Z,1012.68
2023-04-16T07:40:06.748Z,1012.69
2023-04-16T07:41:06.745Z,1012.71
2023-04-16T07:42:06.739Z,1012.68
2023-04-16T07:43:06.795Z,1012.76
2023-04-16T07:44:06.707Z,1012.73
2023-04-16T07:45:06.703Z,1012.72
2023-04-16T07:46:06.709Z,1012.72
2023-04-16T07:47:06.786Z,1012.74
2023-04-16T07:48:06.676Z,1012.76
2023-04-16T07:49:06.640Z,1012.72
2023-04-16T07:50:06.646Z,1012.71
2023-04-16T07:51:06.613Z,1012.76
2023-04-16T07:52:06.616Z,1012.78
2023-04-16T07:53:06.582Z,1012.81
2023-04-16T07:54:06.593Z,1012.79
2023-04-16T07:55:06.573Z,1012.79
2023-04-16T07:56:06.566Z,1012.80
2023-04-16T07:57:06.553Z,1012.80
2023-04-16T07:58:06.562Z,1012.82
2023-04-16T07:59:21.191Z,1012.81
2023-04-16T08:00:07.531Z,1012.82
2023-04-16T08:01:06.514Z,1012.85
2023-04-16T08:02:06.552Z,1012.87
2023-04-16T08:03:06.708Z,1012.78
2023-04-16T08:04:06.610Z,1012.84
2023-04-16T08:05:06.460Z,1012.87
2023-04-16T08:06:06.475Z,1012.85
2023-04-16T08:07:06.443Z,1012.86
2023-04-16T08:08:06.468Z,1012.91
2023-04-16T08:09:06.433Z,1012.90
2023-04-16T08:10:06.458Z,1012.93
2023-04-16T08:11:06.573Z,1012.91
2023-04-16T08:12:06.389Z,1012.93
2023-04-16T08:13:06.387Z,1012.90
2023-04-16T08:14:06.580Z,1012.94
2023-04-16T08:15:06.352Z,1012.86
2023-04-16T08:16:06.397Z,1012.93
2023-04-16T08:17:06.317Z,1012.96
2023-04-16T08:18:06.361Z,1012.99
2023-04-16T08:19:06.316Z,1012.91
2023-04-16T08:20:06.314Z,1012.96
2023-04-16T08:21:06.303Z,1012.96
2023-04-16T08:22:06.306Z,1012.96
2023-04-16T08:23:06.277Z,1013.04
2023-04-16T08:24:06.267Z,1013.03
2023-04-16T08:25:06.238Z,1013.01
2023-04-16T08:26:06.256Z,1012.99
2023-04-16T08:27:17.931Z,1013.02
2023-04-16T08:28:07.236Z,1013.02
2023-04-16T08:29:06.219Z,1013.03
2023-04-16T08:30:06.213Z,1013.03
2023-04-16T08:31:06.214Z,1013.08
2023-04-16T08:32:06.192Z,1013.05
2023-04-16T08:33:06.202Z,1013.06
2023-04-16T08:34:06.164Z,1013.04
2023-04-16T08:35:06.152Z,1013.08
2023-04-16T08:36:06.159Z,1013.11
2023-04-16T08:37:06.127Z,1013.14
2023-04-16T08:38:06.119Z,1013.16
2023-04-16T08:39:06.127Z,1013.13
2023-04-16T08:40:06.114Z,1013.15
2023-04-16T08:41:06.071Z,1013.16
2023-04-16T08:42:06.291Z,1013.14
2023-04-16T08:43:06.060Z,1013.12
2023-04-16T08:44:06.088Z,1013.07
2023-04-16T08:45:06.548Z,1013.08
2023-04-16T08:46:06.138Z,1013.14
2023-04-16T08:47:06.162Z,1013.14
2023-04-16T08:48:06.052Z,1013.15
2023-04-16T08:49:06.014Z,1013.15
2023-04-16T08:50:06.091Z,1013.18
2023-04-16T08:51:05.981Z,1013.13
2023-04-16T08:52:05.973Z,1013.20
2023-04-16T08:53:05.954Z,1013.17
2023-04-16T08:54:05.955Z,1013.18
2023-04-16T08:55:05.938Z,1013.25
2023-04-16T08:56:05.940Z,1013.28
2023-04-16T08:57:05.898Z,1013.25
2023-04-16T08:58:05.891Z,1013.30
2023-04-16T08:59:05.896Z,1013.22
2023-04-16T09:00:05.888Z,1013.27
2023-04-16T09:01:05.870Z,1013.29
2023-04-16T09:02:05.924Z,1013.34
2023-04-16T09:03:06.009Z,1013.32
2023-04-16T09:04:06.117Z,1013.28
2023-04-16T09:05:05.811Z,1013.29
2023-04-16T09:06:05.864Z,1013.32
2023-04-16T09:07:05.798Z,1013.26
2023-04-16T09:08:05.802Z,1013.35
2023-04-16T09:09:06.668Z,1013.39
2023-04-16T09:10:05.787Z,1013.36
2023-04-16T09:11:05.764Z,1013.36
2023-04-16T09:12:05.753Z,1013.27
2023-04-16T09:13:05.739Z,1013.29
2023-04-16T09:14:05.746Z,1013.34
2023-04-16T09:15:05.729Z,1013.34
2023-04-16T09:16:05.929Z,1013.33
2023-04-16T09:17:05.700Z,1013.37
2023-04-16T09:18:05.684Z,1013.36
2023-04-16T09:19:05.679Z,1013.34
2023-04-16T09:20:05.654Z,1013.36
2023-04-16T09:21:05.677Z,1013.39
2023-04-16T09:22:05.637Z,1013.31
2023-04-16T09:23:05.676Z,1013.32
2023-04-16T09:24:05.630Z,1013.35
2023-04-16T09:25:05.646Z,1013.36
2023-04-16T09:26:05.606Z,1013.39
2023-04-16T09:27:05.596Z,1013.40
2023-04-16T09:28:05.596Z,1013.36
2023-04-16T09:29:05.610Z,1013.31
2023-04-16T09:30:05.561Z,1013.40
2023-04-16T09:31:05.565Z,1013.35
2023-04-16T09:32:05.627Z,1013.40
2023-04-16T09:33:05.520Z,1013.43
2023-04-16T09:34:05.577Z,1013.41
2023-04-16T09:35:05.524Z,1013.43
2023-04-16T09:36:05.501Z,1013.49
2023-04-16T09:37:05.475Z,1013.43
2023-04-16T09:38:05.459Z,1013.44
2023-04-16T09:39:05.457Z,1013.49
2023-04-16T09:40:05.462Z,1013.50
2023-04-16T09:41:05.446Z,1013.49
2023-04-16T09:42:05.409Z,1013.49
2023-04-16T09:43:05.425Z,1013.50
2023-04-16T09:44:05.553Z,1013.52
2023-04-16T09:45:06.151Z,1013.54
2023-04-16T09:46:08.012Z,1013.51
2023-04-16T09:47:05.725Z,1013.48
2023-04-16T09:48:05.404Z,1013.50
2023-04-16T09:49:05.358Z,1013.56
2023-04-16T09:50:05.360Z,1013.57
2023-04-16T09:51:05.344Z,1013.55
2023-04-16T09:52:05.313Z,1013.55
2023-04-16T09:53:05.330Z,1013.60
2023-04-16T09:54:05.301Z,1013.63
2023-04-16T09:55:05.302Z,1013.69
2023-04-16T09:56:05.278Z,1013.64
2023-04-16T09:57:05.265Z,1013.63
2023-04-16T09:58:05.280Z,1013.65
2023-04-16T09:59:05.242Z,1013.65
2023-04-16T10:00:05.234Z,1013.76
2023-04-16T10:01:05.286Z,1013.77
2023-04-16T10:02:15.471Z,1013.77
2023-04-16T10:03:06.337Z,1013.74
2023-04-16T10:04:05.250Z,1013.77
2023-04-16T10:05:05.185Z,1013.76
2023-04-16T10:06:05.174Z,1013.75
2023-04-16T10:07:05.176Z,1013.78
2023-04-16T10:08:05.132Z,1013.81
2023-04-16T10:09:05.152Z,1013.78
2023-04-16T10:10:05.121Z,1013.80
2023-04-16T10:11:05.129Z,1013.85
2023-04-16T10:12:05.108Z,1013.82
2023-04-16T10:13:05.112Z,1013.87
2023-04-16T10:14:05.071Z,1013.86
2023-04-16T10:15:05.085Z,1013.84
2023-04-16T10:16:05.088Z,1013.89
2023-04-16T10:17:05.113Z,1013.88
2023-04-16T10:18:05.689Z,1013.90
2023-04-16T10:19:05.041Z,1013.91
2023-04-16T10:20:05.038Z,1013.89
2023-04-16T10:21:05.032Z,1013.94
2023-04-16T10:22:04.989Z,1013.93
2023-04-16T10:23:05.008Z,1013.97
2023-04-16T10:24:04.973Z,1013.97
2023-04-16T10:25:05.011Z,1013.95
2023-04-16T10:26:04.953Z,1013.97
2023-04-16T10:27:04.939Z,1013.95
2023-04-16T10:28:04.926Z,1013.93
2023-04-16T10:29:04.938Z,1013.96
2023-04-16T10:30:04.910Z,1013.97
2023-04-16T10:31:04.972Z,1013.98
2023-04-16T10:32:04.894Z,1013.96
2023-04-16T10:33:04.937Z,1014.00
2023-04-16T10:34:04.859Z,1013.99
2023-04-16T10:35:04.842Z,1014.01
2023-04-16T10:36:07.444Z,1014.00
2023-04-16T10:37:04.858Z,1014.05
2023-04-16T10:38:04.906Z,1014.01
2023-04-16T10:39:04.825Z,1014.01
2023-04-16T10:40:04.817Z,1014.04
2023-04-16T10:41:04.805Z,1014.02
2023-04-16T10:42:04.771Z,1014.03
2023-04-16T10:43:04.776Z,1014.02
2023-04-16T10:44:04.779Z,1014.03
2023-04-16T10:45:04.749Z,1014.01
2023-04-16T10:46:04.748Z,1014.02
2023-04-16T10:47:04.753Z,1014.04
2023-04-16T10:48:04.713Z,1014.06
2023-04-16T10:49:06.198Z,1013.98
2023-04-16T10:50:04.766Z,1014.02
2023-04-16T10:51:04.695Z,1013.98
2023-04-16T10:52:04.667Z,1013.98
2023-04-16T10:53:04.662Z,1014.00
2023-04-16T10:54:04.652Z,1014.03
2023-04-16T10:55:04.641Z,1014.01
2023-04-16T10:56:04.648Z,1013.99
2023-04-16T10:57:04.801Z,1014.02
2023-04-16T10:58:04.620Z,1014.02
2023-04-16T10:59:04.594Z,1014.00
2023-04-16T11:00:04.575Z,1014.04
2023-04-16T11:01:04.573Z,1013.99
2023-04-16T11:02:04.620Z,1013.92
2023-04-16T11:03:04.741Z,1014.01
2023-04-16T11:04:04.665Z,1014.05
2023-04-16T11:05:04.623Z,1014.02
2023-04-16T11:06:04.521Z,1014.07
2023-04-16T11:07:04.541Z,1014.03
2023-04-16T11:08:04.510Z,1014.07
2023-04-16T11:09:04.490Z,1014.05
2023-04-16T11:10:04.516Z,1014.01
2023-04-16T11:11:04.459Z,1014.06
2023-04-16T11:12:04.460Z,1014.01
2023-04-16T11:13:04.491Z,1014.10
2023-04-16T11:14:04.433Z,1014.08
2023-04-16T11:15:04.423Z,1014.10
2023-04-16T11:16:04.525Z,1014.09
2023-04-16T11:17:04.469Z,1014.13
2023-04-16T11:18:04.459Z,1014.10
2023-04-16T11:19:04.418Z,1014.13
2023-04-16T11:20:18.961Z,1014.06
2023-04-16T11:21:05.369Z,1014.02
2023-04-16T11:22:04.347Z,1014.04
2023-04-16T11:23:04.348Z,1014.03
2023-04-16T11:24:04.318Z,1014.10
2023-04-16T11:25:04.319Z,1014.10
2023-04-16T11:26:04.346Z,1014.12
2023-04-16T11:27:04.299Z,1014.09
2023-04-16T11:28:04.275Z,1014.06
2023-04-16T11:29:04.269Z,1014.10
2023-04-16T11:30:04.258Z,1014.12
2023-04-16T11:31:04.330Z,1014.08
2023-04-16T11:32:04.265Z,1014.07
2023-04-16T11:33:04.248Z,1014.07
2023-04-16T11:34:04.211Z,1014.11
2023-04-16T11:35:04.230Z,1014.13
2023-04-16T11:36:04.202Z,1014.14
2023-04-16T11:37:04.192Z,1014.09
2023-04-16T11:38:04.187Z,1014.14
2023-04-16T11:39:04.161Z,1014.17
2023-04-16T11:40:04.159Z,1014.14
2023-04-16T11:41:04.155Z,1014.16
2023-04-16T11:42:04.168Z,1014.16
2023-04-16T11:43:04.158Z,1014.23
2023-04-16T11:44:04.095Z,1014.14
2023-04-16T11:45:04.122Z,1014.19
2023-04-16T11:46:10.267Z,1014.11
2023-04-16T11:47:05.098Z,1014.17
2023-04-16T11:48:04.096Z,1014.18
2023-04-16T11:49:04.088Z,1014.20
2023-04-16T11:50:04.044Z,1014.21
2023-04-16T11:51:05.140Z,1014.23
2023-04-16T11:52:04.025Z,1014.20
2023-04-16T11:53:04.172Z,1014.20
2023-04-16T11:54:03.992Z,1014.21
2023-04-16T11:55:03.997Z,1014.17
2023-04-16T11:56:03.982Z,1014.22
2023-04-16T11:57:03.987Z,1014.19
2023-04-16T11:58:03.947Z,1014.18
2023-04-16T11:59:03.970Z,1014.21
2023-04-16T12:00:05.434Z,1014.15
2023-04-16T12:01:03.931Z,1014.19
2023-04-16T12:02:04.019Z,1014.23
2023-04-16T12:03:04.067Z,1014.19
2023-04-16T12:04:04.080Z,1014.22
2023-04-16T12:05:03.936Z,1014.21